Terminal Aerodrome Forecast
Issued by NWS Shreveport, LA

Home | Current Version | Previous Version | Text Only | Print | Product List | Glossary On
Versions: 1 2 3 4 5 6 7 8 9 10 11 12 13 14 15 16 17 18 19 20 21
000
FTUS44 KSHV 311100
TAFELD
TAF
KELD 311126Z 3112/0112 17004KT P6SM SCT005 BKN100 BKN250
      TEMPO 3112/3114 5SM BR BKN005
     FM311400 18005KT P6SM BKN015 BKN250
     FM311600 18006KT P6SM BKN025
     FM311800 18008KT P6SM BKN045
     FM010000 17005KT P6SM SCT050
      TEMPO 0109/0112 3SM BR=

USA.gov is the U.S. government's official web portal to all federal, state and local government web resources and services.